createdAt,value
2019-04-03T00:00:42.914Z,55.90
2019-04-03T00:05:50.918Z,56.70
2019-04-03T00:08:19.445Z,57.40
2019-04-03T00:16:32.722Z,56.90
2019-04-03T00:24:46.300Z,58.40
2019-04-03T00:33:09.808Z,56.10
2019-04-03T00:35:44.238Z,56.20
2019-04-03T00:41:13.764Z,56.40
2019-04-03T00:46:32.057Z,57.50
2019-04-03T00:49:00.524Z,58.30
2019-04-03T00:51:28.960Z,58.80
2019-04-03T00:53:58.118Z,60.20
2019-04-03T01:00:02.073Z,62.50
2019-04-03T01:02:11.106Z,63.90
2019-04-03T01:04:40.964Z,64.30
2019-04-03T01:10:04.189Z,65.60
2019-04-03T01:12:32.702Z,66.20
2019-04-03T01:26:44.429Z,68.70
2019-04-03T01:35:01.325Z,69.80
2019-04-03T01:40:33.402Z,70.00
2019-04-03T01:43:01.854Z,70.30
2019-04-03T01:45:30.362Z,70.60
2019-04-03T01:47:58.812Z,70.90
2019-04-03T01:56:06.233Z,72.20
2019-04-03T01:58:46.922Z,72.70
2019-04-03T02:04:13.761Z,73.50
2019-04-03T02:06:43.733Z,74.20
2019-04-03T02:12:28.997Z,73.80
2019-04-03T02:14:53.193Z,73.70
2019-04-03T02:20:18.540Z,75.20
2019-04-03T02:23:01.375Z,76.30
2019-04-03T02:25:32.154Z,76.70
2019-04-03T02:34:02.274Z,77.00
2019-04-03T02:36:31.393Z,77.40
2019-04-03T02:39:02.857Z,77.60
2019-04-03T02:41:36.809Z,77.50
2019-04-03T02:47:01.571Z,77.20
2019-04-03T02:52:28.805Z,76.60
2019-04-03T02:54:58.833Z,77.20
2019-04-03T02:57:27.518Z,76.10
2019-04-03T03:02:53.109Z,75.80
2019-04-03T03:08:14.787Z,77.60
2019-04-03T03:13:44.891Z,79.80
2019-04-03T03:16:14.527Z,80.50
2019-04-03T03:18:51.389Z,80.20
2019-04-03T03:21:51.411Z,80.40
2019-04-03T03:30:30.584Z,83.80
2019-04-03T03:32:41.057Z,82.80
2019-04-03T03:35:15.681Z,82.70
2019-04-03T03:37:40.898Z,83.00
2019-04-03T03:40:09.520Z,82.30
2019-04-03T03:42:38.170Z,82.30
2019-04-03T03:45:08.065Z,83.40
2019-04-03T03:47:37.871Z,82.20
2019-04-03T03:50:09.634Z,81.20
2019-04-03T03:52:39.231Z,82.00
2019-04-03T03:55:08.715Z,83.50
2019-04-03T03:57:40.415Z,82.80
2019-04-03T04:00:10.154Z,82.10
2019-04-03T04:02:43.256Z,83.70
2019-04-03T04:05:11.550Z,82.60
2019-04-03T04:07:40.320Z,84.60
2019-04-03T04:10:09.690Z,83.70
2019-04-03T04:12:41.192Z,84.10
2019-04-03T04:15:09.163Z,85.10
2019-04-03T04:17:37.586Z,84.90
2019-04-03T04:20:07.446Z,85.70
2019-04-03T04:22:37.319Z,85.20
2019-04-03T04:25:07.033Z,83.20
2019-04-03T04:27:38.552Z,82.40
2019-04-03T04:30:06.613Z,82.70
2019-04-03T04:32:35.500Z,83.90
2019-04-03T04:35:05.818Z,84.60
2019-04-03T04:37:34.395Z,84.20
2019-04-03T04:40:02.860Z,83.30
2019-04-03T04:42:31.465Z,82.70
2019-04-03T04:45:01.611Z,81.80
2019-04-03T04:47:30.144Z,80.30
2019-04-03T04:49:58.751Z,79.00
2019-04-03T04:52:27.601Z,78.80
2019-04-03T04:54:56.676Z,78.70
2019-04-03T04:57:25.107Z,78.50
2019-04-03T04:59:53.647Z,78.50
2019-04-03T05:02:23.565Z,78.70
2019-04-03T05:04:52.120Z,80.30
2019-04-03T05:07:22.097Z,78.90
2019-04-03T05:09:50.541Z,78.50
2019-04-03T05:12:18.952Z,78.50
2019-04-03T05:14:48.944Z,78.70
2019-04-03T05:17:17.606Z,79.10
2019-04-03T05:19:48.278Z,80.00
2019-04-03T05:22:16.404Z,79.60
2019-04-03T05:24:44.842Z,80.80
2019-04-03T05:27:13.255Z,80.10
2019-04-03T05:29:41.839Z,81.20
2019-04-03T05:32:10.820Z,81.40
2019-04-03T05:34:39.431Z,81.10
2019-04-03T05:37:10.730Z,81.80
2019-04-03T05:39:38.018Z,81.30
2019-04-03T05:42:06.767Z,82.90
2019-04-03T05:44:35.582Z,83.70
2019-04-03T05:47:04.271Z,83.20
2019-04-03T05:49:32.899Z,85.50
2019-04-03T05:52:03.434Z,84.90
2019-04-03T05:54:31.710Z,85.00
2019-04-03T05:57:00.161Z,85.40
2019-04-03T05:59:28.598Z,86.80
2019-04-03T06:01:57.024Z,87.70
2019-04-03T06:04:25.670Z,87.70
2019-04-03T06:06:54.238Z,88.60
2019-04-03T06:09:23.229Z,90.00
2019-04-03T06:11:52.321Z,90.20
2019-04-03T06:14:23.192Z,90.60
2019-04-03T06:16:51.555Z,90.60
2019-04-03T06:19:20.001Z,90.40
2019-04-03T06:21:48.450Z,91.00
2019-04-03T06:24:18.003Z,91.10
2019-04-03T06:26:47.011Z,90.70
2019-04-03T06:29:18.425Z,90.10
2019-04-03T06:31:45.979Z,90.30
2019-04-03T06:34:14.378Z,90.30
2019-04-03T06:36:42.812Z,90.40
2019-04-03T06:39:11.233Z,90.70
2019-04-03T06:41:41.637Z,90.70
2019-04-03T06:44:09.806Z,90.60
2019-04-03T06:46:38.252Z,90.50
2019-04-03T06:49:08.515Z,90.20
2019-04-03T06:51:37.642Z,90.40
2019-04-03T06:54:08.069Z,90.60
2019-04-03T06:56:38.350Z,90.40
2019-04-03T06:59:07.283Z,91.00
2019-04-03T07:01:35.709Z,91.60
2019-04-03T07:04:05.849Z,91.00
2019-04-03T07:06:34.435Z,91.10
2019-04-03T07:09:05.234Z,91.90
2019-04-03T07:11:33.905Z,92.00
2019-04-03T07:14:02.638Z,92.00
2019-04-03T07:16:31.371Z,92.60
2019-04-03T07:19:00.343Z,92.50
2019-04-03T07:21:28.904Z,92.80
2019-04-03T07:24:00.390Z,93.10
2019-04-03T07:26:27.953Z,93.40
2019-04-03T07:28:56.763Z,93.50
2019-04-03T07:31:25.774Z,93.60
2019-04-03T07:33:57.407Z,93.30
2019-04-03T07:36:24.937Z,93.30
2019-04-03T07:38:53.391Z,93.30
2019-04-03T07:41:23.373Z,92.60
2019-04-03T07:43:52.559Z,93.10
2019-04-03T07:46:21.451Z,92.70
2019-04-03T07:48:49.902Z,93.00
2019-04-03T07:51:18.336Z,93.60
2019-04-03T07:53:46.820Z,94.50
2019-04-03T07:56:15.468Z,95.00
2019-04-03T07:58:43.950Z,94.40
2019-04-03T08:01:13.001Z,94.60
2019-04-03T08:03:41.599Z,94.30
2019-04-03T08:06:10.448Z,94.70
2019-04-03T08:08:39.507Z,94.00
2019-04-03T08:11:08.056Z,93.70
2019-04-03T08:13:38.178Z,93.10
2019-04-03T08:16:06.693Z,92.10
2019-04-03T08:18:35.112Z,92.40
2019-04-03T08:21:03.589Z,93.20
2019-04-03T08:23:32.182Z,93.10
2019-04-03T08:26:02.254Z,93.70
2019-04-03T08:28:30.836Z,94.30
2019-04-03T08:30:59.461Z,93.20
2019-04-03T08:33:28.273Z,93.30
2019-04-03T08:35:56.781Z,94.20
2019-04-03T08:38:25.372Z,94.90
2019-04-03T08:40:53.925Z,95.00
2019-04-03T08:43:23.265Z,95.00
2019-04-03T08:45:51.813Z,94.40
2019-04-03T08:48:20.229Z,94.80
2019-04-03T08:50:48.673Z,93.80
2019-04-03T08:53:17.144Z,93.10
2019-04-03T08:55:46.496Z,92.30
2019-04-03T08:58:15.326Z,92.70
2019-04-03T09:00:44.083Z,92.70
2019-04-03T09:03:14.658Z,93.10
2019-04-03T09:05:43.123Z,92.90
2019-04-03T09:08:11.665Z,92.10
2019-04-03T09:10:40.213Z,90.50
2019-04-03T09:13:17.043Z,90.20
2019-04-03T09:15:39.039Z,89.20
2019-04-03T09:18:07.788Z,91.10
2019-04-03T09:20:36.262Z,90.30
2019-04-03T09:23:04.688Z,89.30
2019-04-03T09:25:33.111Z,87.80
2019-04-03T09:28:01.845Z,88.80
2019-04-03T09:30:31.485Z,87.80
2019-04-03T09:33:00.514Z,89.90
2019-04-03T09:35:32.184Z,90.60
2019-04-03T09:38:02.315Z,90.70
2019-04-03T09:43:35.298Z,92.10
2019-04-03T09:46:03.791Z,92.50
2019-04-03T09:48:32.253Z,92.60
2019-04-03T09:51:01.016Z,91.90
2019-04-03T09:53:30.478Z,92.90
2019-04-03T09:55:59.107Z,93.30
2019-04-03T09:58:27.563Z,93.00
2019-04-03T10:00:57.497Z,93.20
2019-04-03T10:03:30.677Z,92.40
2019-04-03T10:08:56.257Z,92.00
2019-04-03T10:11:26.184Z,91.80
2019-04-03T10:13:57.758Z,91.90
2019-04-03T10:16:27.764Z,91.30
2019-04-03T10:18:56.270Z,92.00
2019-04-03T10:21:24.732Z,92.20
2019-04-03T10:26:41.650Z,92.10
2019-04-03T10:29:12.071Z,92.00
2019-04-03T10:31:40.620Z,92.40
2019-04-03T10:34:13.345Z,92.80
2019-04-03T10:36:43.542Z,93.00
2019-04-03T10:39:15.934Z,92.90
2019-04-03T10:41:44.942Z,93.30
2019-04-03T10:44:15.530Z,93.40
2019-04-03T10:46:44.472Z,92.80
2019-04-03T10:49:13.021Z,92.80
2019-04-03T10:51:42.038Z,92.30
2019-04-03T10:54:10.954Z,92.20
2019-04-03T10:56:41.229Z,91.40
2019-04-03T10:59:13.088Z,92.30
2019-04-03T11:01:40.073Z,92.50
2019-04-03T11:04:08.844Z,92.20
2019-04-03T11:06:37.855Z,92.20
2019-04-03T11:09:08.297Z,91.90
2019-04-03T11:11:37.645Z,91.90
2019-04-03T11:14:07.795Z,92.00
2019-04-03T11:16:38.673Z,91.20
2019-04-03T11:19:07.501Z,91.20
2019-04-03T11:21:36.133Z,90.20
2019-04-03T11:24:06.622Z,89.70
2019-04-03T11:26:35.051Z,87.60
2019-04-03T11:29:21.424Z,88.50
2019-04-03T11:31:50.632Z,89.00
2019-04-03T11:34:19.301Z,88.10
2019-04-03T11:36:54.044Z,86.60
2019-04-03T11:42:25.201Z,88.20
2019-04-03T11:47:51.802Z,86.20
2019-04-03T11:50:46.752Z,85.40
2019-04-03T11:53:14.871Z,85.50
2019-04-03T11:55:43.324Z,86.50
2019-04-03T11:58:11.877Z,87.40
2019-04-03T12:03:36.789Z,86.00
2019-04-03T12:09:13.286Z,85.80
2019-04-03T12:11:41.569Z,84.90
2019-04-03T12:14:13.098Z,85.10
2019-04-03T12:16:41.606Z,85.30
2019-04-03T12:19:30.671Z,87.00
2019-04-03T12:22:00.916Z,87.00
2019-04-03T12:24:29.629Z,88.20
2019-04-03T12:29:56.173Z,90.30
2019-04-03T12:32:37.041Z,90.00
2019-04-03T12:35:01.097Z,90.00
2019-04-03T12:37:40.644Z,86.40
2019-04-03T12:43:06.574Z,84.50
2019-04-03T12:45:44.690Z,84.60
2019-04-03T12:48:18.455Z,86.10
2019-04-03T12:50:46.868Z,83.90
2019-04-03T12:53:19.615Z,84.20
2019-04-03T12:55:50.188Z,84.80
2019-04-03T12:58:21.138Z,82.80
2019-04-03T13:03:25.747Z,82.00
2019-04-03T13:06:00.301Z,83.60
2019-04-03T13:11:23.328Z,84.00
2019-04-03T13:13:51.978Z,84.60
2019-04-03T13:22:27.629Z,84.70
2019-04-03T13:24:57.872Z,84.40
2019-04-03T13:27:26.694Z,82.40
2019-04-03T13:29:58.432Z,84.10
2019-04-03T13:32:34.066Z,84.70
2019-04-03T13:35:16.709Z,84.10
2019-04-03T13:37:54.375Z,84.70
2019-04-03T13:40:33.237Z,84.80
2019-04-03T13:45:58.118Z,85.40
2019-04-03T13:48:40.377Z,83.00
2019-04-03T13:57:17.252Z,86.00
2019-04-03T14:02:23.402Z,87.20
2019-04-03T14:04:52.381Z,87.40
2019-04-03T14:07:30.054Z,87.20
2019-04-03T14:10:13.070Z,88.70
2019-04-03T14:15:35.044Z,89.90
2019-04-03T14:18:07.895Z,90.10
2019-04-03T14:20:36.611Z,90.50
2019-04-03T14:23:08.016Z,90.60
2019-04-03T14:25:38.558Z,90.70
2019-04-03T14:28:06.957Z,90.00
2019-04-03T14:30:37.223Z,88.70
2019-04-03T14:33:18.930Z,88.40
2019-04-03T14:35:52.635Z,88.40
2019-04-03T14:38:42.169Z,89.10
2019-04-03T14:40:54.002Z,88.50
2019-04-03T14:46:18.037Z,88.70
2019-04-03T14:48:51.093Z,88.50
2019-04-03T14:51:21.657Z,89.20
2019-04-03T14:56:51.447Z,88.70
2019-04-03T15:02:21.409Z,90.50
2019-04-03T15:10:51.143Z,91.80
2019-04-03T15:19:17.960Z,93.90
2019-04-03T15:24:49.747Z,93.80
2019-04-03T15:27:18.235Z,93.80
2019-04-03T15:29:46.669Z,94.20
2019-04-03T15:32:17.649Z,94.50
2019-04-03T15:34:45.325Z,94.70
2019-04-03T15:37:14.714Z,95.30
2019-04-03T15:39:43.713Z,95.30
2019-04-03T15:42:13.129Z,94.90
2019-04-03T15:44:44.352Z,94.70
2019-04-03T15:47:13.325Z,95.00
2019-04-03T15:49:41.997Z,94.80
2019-04-03T15:52:12.901Z,94.60
2019-04-03T15:54:41.320Z,94.90
2019-04-03T15:57:10.012Z,95.20
2019-04-03T15:59:38.709Z,95.60
2019-04-03T16:02:07.244Z,95.00
2019-04-03T16:04:38.488Z,95.40
2019-04-03T16:07:08.086Z,95.70
2019-04-03T16:09:37.302Z,95.90
2019-04-03T16:12:07.090Z,95.60
2019-04-03T16:14:35.729Z,95.80
2019-04-03T16:17:04.502Z,95.00
2019-04-03T16:19:33.075Z,95.70
2019-04-03T16:22:02.270Z,95.80
2019-04-03T16:24:31.323Z,96.20
2019-04-03T16:27:00.602Z,95.60
2019-04-03T16:29:30.826Z,95.50
2019-04-03T16:32:01.861Z,95.00
2019-04-03T16:34:30.380Z,95.30
2019-04-03T16:36:58.815Z,95.50
2019-04-03T16:39:27.875Z,95.00
2019-04-03T16:41:56.452Z,94.90
2019-04-03T16:44:26.310Z,94.90
2019-04-03T16:46:55.743Z,95.30
2019-04-03T16:49:24.181Z,94.40
2019-04-03T16:51:52.917Z,94.70
2019-04-03T16:54:21.393Z,95.30
2019-04-03T16:56:52.133Z,95.50
2019-04-03T16:59:20.662Z,95.70
2019-04-03T17:01:49.426Z,95.60
2019-04-03T17:04:26.501Z,94.70
2019-04-03T17:06:49.938Z,95.50
2019-04-03T17:09:18.539Z,95.50
2019-04-03T17:11:48.840Z,94.60
2019-04-03T17:14:17.571Z,94.50
2019-04-03T17:16:47.031Z,94.80
2019-04-03T17:19:15.793Z,95.00
2019-04-03T17:21:46.231Z,96.00
2019-04-03T17:24:17.372Z,95.70
2019-04-03T17:26:51.304Z,95.60
2019-04-03T17:29:15.652Z,95.70
2019-04-03T17:31:44.213Z,95.10
2019-04-03T17:34:12.704Z,95.10
2019-04-03T17:36:42.029Z,95.20
2019-04-03T17:39:10.440Z,95.10
2019-04-03T17:41:40.795Z,94.50
2019-04-03T17:44:09.793Z,94.80
2019-04-03T17:46:40.076Z,95.60
2019-04-03T17:49:08.888Z,94.80
2019-04-03T17:51:37.554Z,95.10
2019-04-03T17:54:07.773Z,95.30
2019-04-03T17:56:38.662Z,95.70
2019-04-03T17:59:07.164Z,96.00
2019-04-03T18:01:36.768Z,96.40
2019-04-03T18:04:05.497Z,96.40
2019-04-03T18:06:36.862Z,96.30
2019-04-03T18:09:10.769Z,96.70
2019-04-03T18:11:39.329Z,96.10
2019-04-03T18:14:07.782Z,95.90
2019-04-03T18:16:36.222Z,95.90
2019-04-03T18:19:05.401Z,96.00
2019-04-03T18:21:35.571Z,95.60
2019-04-03T18:24:04.246Z,95.70
2019-04-03T18:26:34.064Z,96.00
2019-04-03T18:29:06.468Z,95.90
2019-04-03T18:31:34.464Z,96.10
2019-04-03T18:34:02.902Z,95.60
2019-04-03T18:36:31.406Z,95.80
2019-04-03T18:38:59.933Z,95.60
2019-04-03T18:41:28.416Z,97.30
2019-04-03T18:43:56.853Z,96.70
2019-04-03T18:46:32.289Z,96.50
2019-04-03T18:49:01.002Z,96.10
2019-04-03T18:51:28.798Z,96.10
2019-04-03T18:53:57.226Z,95.80
2019-04-03T18:56:25.655Z,95.40
2019-04-03T18:58:56.839Z,95.40
2019-04-03T19:01:25.367Z,95.20
2019-04-03T19:03:53.813Z,95.20
2019-04-03T19:06:22.397Z,95.30
2019-04-03T19:08:50.874Z,94.90
2019-04-03T19:11:19.466Z,94.60
2019-04-03T19:13:49.469Z,94.40
2019-04-03T19:16:29.450Z,94.40
2019-04-03T19:18:51.461Z,94.10
2019-04-03T19:21:24.738Z,93.80
2019-04-03T19:23:51.977Z,94.70
2019-04-03T19:26:20.306Z,94.90
2019-04-03T19:28:48.717Z,95.30
2019-04-03T19:31:17.179Z,95.20
2019-04-03T19:33:45.789Z,94.80
2019-04-03T19:36:14.312Z,95.10
2019-04-03T19:38:42.731Z,95.10
2019-04-03T19:41:11.823Z,95.30
2019-04-03T19:43:40.860Z,96.00
2019-04-03T19:46:10.856Z,95.30
2019-04-03T19:48:39.279Z,95.00
2019-04-03T19:51:07.687Z,95.00
2019-04-03T19:53:36.181Z,94.80
2019-04-03T19:56:04.691Z,95.10
2019-04-03T19:58:35.965Z,96.10
2019-04-03T20:01:08.158Z,96.50
2019-04-03T20:03:36.859Z,96.20
2019-04-03T20:06:08.308Z,96.00
2019-04-03T20:08:36.723Z,95.60
2019-04-03T20:11:05.751Z,95.40
2019-04-03T20:13:34.276Z,96.00
2019-04-03T20:16:02.690Z,96.00
2019-04-03T20:18:32.788Z,95.80
2019-04-03T20:21:01.992Z,96.40
2019-04-03T20:23:31.376Z,96.10
2019-04-03T20:26:01.347Z,95.70
2019-04-03T20:28:31.490Z,95.60
2019-04-03T20:31:03.804Z,96.00
2019-04-03T20:33:33.535Z,95.40
2019-04-03T20:36:06.340Z,95.30
2019-04-03T20:38:40.254Z,95.00
2019-04-03T20:41:12.240Z,95.30
2019-04-03T20:43:47.136Z,96.00
2019-04-03T20:46:15.151Z,96.40
2019-04-03T20:48:43.591Z,96.40
2019-04-03T20:51:12.109Z,96.50
2019-04-03T20:53:40.561Z,96.10
2019-04-03T20:56:11.752Z,96.10
2019-04-03T20:58:40.880Z,96.00
2019-04-03T21:01:09.559Z,96.10
2019-04-03T21:03:37.960Z,96.10
2019-04-03T21:06:06.420Z,96.60
2019-04-03T21:08:37.827Z,97.20
2019-04-03T21:11:07.861Z,97.70
2019-04-03T21:13:39.399Z,97.90
2019-04-03T21:16:09.732Z,97.70
2019-04-03T21:18:40.993Z,97.20
2019-04-03T21:21:09.498Z,97.20
2019-04-03T21:23:37.909Z,97.30
2019-04-03T21:26:07.354Z,98.10
2019-04-03T21:28:35.924Z,97.60
2019-04-03T21:31:04.418Z,97.70
2019-04-03T21:33:32.834Z,97.80
2019-04-03T21:36:01.276Z,98.20
2019-04-03T21:38:29.688Z,98.40
2019-04-03T21:40:59.927Z,98.60
2019-04-03T21:43:29.239Z,98.10
2019-04-03T21:45:58.249Z,97.50
2019-04-03T21:48:26.660Z,97.50
2019-04-03T21:50:55.125Z,97.50
2019-04-03T21:53:28.949Z,97.70
2019-04-03T21:55:57.393Z,98.00
2019-04-03T21:58:25.817Z,98.00
2019-04-03T22:01:00.092Z,98.00
2019-04-03T22:03:31.394Z,98.30
2019-04-03T22:05:59.868Z,98.60
2019-04-03T22:08:29.044Z,98.50
2019-04-03T22:10:58.233Z,98.50
2019-04-03T22:13:29.369Z,98.30
2019-04-03T22:15:57.844Z,97.70
2019-04-03T22:18:26.269Z,97.30
2019-04-03T22:20:54.692Z,97.40
2019-04-03T22:23:23.126Z,97.50
2019-04-03T22:25:55.314Z,97.60
2019-04-03T22:28:24.657Z,97.50
2019-04-03T22:30:53.070Z,97.90
2019-04-03T22:33:21.573Z,98.20
2019-04-03T22:35:52.682Z,97.80
2019-04-03T22:38:24.789Z,97.80
2019-04-03T22:40:53.181Z,98.20
2019-04-03T22:43:23.149Z,98.70
2019-04-03T22:45:51.556Z,98.40
2019-04-03T22:48:20.008Z,97.90
2019-04-03T22:50:48.425Z,98.00
2019-04-03T22:53:16.909Z,97.90
2019-04-03T22:55:47.068Z,97.90
2019-04-03T22:58:15.642Z,97.50
2019-04-03T23:00:44.058Z,97.00
2019-04-03T23:03:13.413Z,97.30
2019-04-03T23:05:48.524Z,98.00
2019-04-03T23:08:22.690Z,97.80
2019-04-03T23:10:51.224Z,97.70
2019-04-03T23:13:19.690Z,97.70
2019-04-03T23:15:49.738Z,97.90
2019-04-03T23:18:21.179Z,98.10
2019-04-03T23:20:52.541Z,98.20
2019-04-03T23:23:27.083Z,98.50
2019-04-03T23:25:53.738Z,98.60
2019-04-03T23:28:22.166Z,98.20
2019-04-03T23:30:52.437Z,98.20
2019-04-03T23:33:20.937Z,98.60
2019-04-03T23:35:51.158Z,98.70
2019-04-03T23:38:19.601Z,98.80
2019-04-03T23:40:50.869Z,99.00
2019-04-03T23:43:20.104Z,99.10
2019-04-03T23:45:48.513Z,99.10
2019-04-03T23:48:18.535Z,99.00
2019-04-03T23:50:52.355Z,99.10
2019-04-03T23:53:21.447Z,98.50
2019-04-03T23:55:52.204Z,98.30
2019-04-03T23:58:20.076Z,98.20
